Time;durP1;ratioP1;P1;durP2;ratioP2;P2;SDS_P1;SDS_P2;PMS_P1;PMS_P2;Temp;Humidity;BMP_temperature;BMP_pressure;BME280_temperature;BME280_humidity;BME280_pressure;Samples;Min_cycle;Max_cycle;Signal;HPM_P1;HPM_P2
2021/05/14 00:01:48;;;;;;;48.33;34.50;;;;;;;;;;5054091;28;20689;-57
2021/05/14 00:04:15;;;;;;;52.93;34.67;;;;;;;;;;5053874;28;20232;-57
2021/05/14 00:06:41;;;;;;;50.37;33.47;;;;;;;;;;5053764;28;20225;-56
2021/05/14 00:09:08;;;;;;;49.77;35.27;;;;;;;;;;5054262;28;20208;-51
2021/05/14 00:11:34;;;;;;;48.37;33.97;;;;;;;;;;5053881;28;20682;-55
2021/05/14 00:14:00;;;;;;;43.13;31.50;;;;;;;;;;5054063;28;20239;-54
2021/05/14 00:16:28;;;;;;;47.20;32.87;;;;;;;;;;5053756;28;20209;-56
2021/05/14 00:18:54;;;;;;;48.77;32.00;;;;;;;;;;5053804;28;20209;-57
2021/05/14 00:21:21;;;;;;;53.50;33.70;;;;;;;;;;5053236;28;20212;-57
2021/05/14 00:23:47;;;;;;;49.27;32.83;;;;;;;;;;5053741;28;20224;-57
2021/05/14 00:26:14;;;;;;;49.97;35.03;;;;;;;;;;5053555;28;20251;-57
2021/05/14 00:28:40;;;;;;;46.77;32.20;;;;;;;;;;5053569;28;20203;-57
2021/05/14 00:31:07;;;;;;;52.07;33.23;;;;;;;;;;5053413;28;20209;-57
2021/05/14 00:33:34;;;;;;;55.67;34.50;;;;;;;;;;5053248;28;20276;-56
2021/05/14 00:36:01;;;;;;;54.60;34.43;;;;;;;;;;5053474;28;20219;-56
2021/05/14 00:38:27;;;;;;;48.60;32.87;;;;;;;;;;5053422;28;20211;-57
2021/05/14 00:40:54;;;;;;;53.87;34.80;;;;;;;;;;5053369;28;20209;-58
2021/05/14 00:43:20;;;;;;;52.47;34.10;;;;;;;;;;5052817;28;20228;-57
2021/05/14 00:45:47;;;;;;;51.33;34.50;;;;;;;;;;5052994;28;20646;-56
2021/05/14 00:48:14;;;;;;;49.43;32.53;;;;;;;;;;5053186;28;20205;-57
2021/05/14 00:50:41;;;;;;;48.30;33.73;;;;;;;;;;5053027;28;20208;-57
2021/05/14 00:53:08;;;;;;;52.13;34.57;;;;;;;;;;5053371;28;20224;-57
2021/05/14 00:55:34;;;;;;;60.27;35.80;;;;;;;;;;5052945;28;20758;-57
2021/05/14 00:58:01;;;;;;;61.90;37.17;;;;;;;;;;5054059;28;20262;-57
2021/05/14 01:00:27;;;;;;;58.13;35.57;;;;;;;;;;5053001;28;20204;-56
2021/05/14 01:02:54;;;;;;;57.63;35.77;;;;;;;;;;5053201;28;20215;-55
2021/05/14 01:05:21;;;;;;;54.70;37.23;;;;;;;;;;5054078;28;20211;-57
2021/05/14 01:07:50;;;;;;;54.43;35.03;;;;;;;;;;5053991;28;20208;-56
2021/05/14 01:10:17;;;;;;;59.33;37.03;;;;;;;;;;5052756;28;20698;-56
2021/05/14 01:12:43;;;;;;;65.43;39.50;;;;;;;;;;5052675;28;20672;-57
2021/05/14 01:15:10;;;;;;;59.53;37.13;;;;;;;;;;5052601;28;20270;-57
2021/05/14 01:17:37;;;;;;;60.13;39.03;;;;;;;;;;5053305;28;20205;-57
2021/05/14 01:20:04;;;;;;;58.70;38.17;;;;;;;;;;5053349;28;20210;-57
2021/05/14 01:22:31;;;;;;;63.63;38.70;;;;;;;;;;5053211;28;20215;-57
2021/05/14 01:24:58;;;;;;;66.60;39.60;;;;;;;;;;5052640;28;20284;-57
2021/05/14 01:27:24;;;;;;;64.07;38.20;;;;;;;;;;5052700;28;20282;-56
2021/05/14 01:29:51;;;;;;;54.77;36.27;;;;;;;;;;5052358;28;20623;-57
2021/05/14 01:32:17;;;;;;;51.57;34.23;;;;;;;;;;5052486;28;20328;-56
2021/05/14 01:34:44;;;;;;;52.77;34.60;;;;;;;;;;5052209;28;20239;-55
2021/05/14 01:37:11;;;;;;;48.23;33.20;;;;;;;;;;5052409;28;20204;-56
2021/05/14 01:39:38;;;;;;;46.43;32.63;;;;;;;;;;5052539;28;20248;-57
2021/05/14 01:42:05;;;;;;;44.90;31.93;;;;;;;;;;5052027;28;20662;-57
2021/05/14 01:44:31;;;;;;;42.03;30.27;;;;;;;;;;5051897;28;20717;-57
2021/05/14 01:46:58;;;;;;;45.53;31.23;;;;;;;;;;5052202;28;20231;-56
2021/05/14 01:49:25;;;;;;;50.23;32.23;;;;;;;;;;5052192;28;20208;-57
2021/05/14 01:51:52;;;;;;;45.37;30.77;;;;;;;;;;5052010;28;20208;-55
2021/05/14 01:54:18;;;;;;;43.83;30.57;;;11.60;99.90;;;;;;5051436;28;20595;-57
2021/05/14 01:56:47;;;;;;;45.30;31.23;;;11.00;99.90;;;;;;5051982;28;20222;-57
2021/05/14 01:59:13;;;;;;;45.43;31.17;;;11.00;99.90;;;;;;5051993;28;20212;-57
2021/05/14 02:01:40;;;;;;;48.43;32.13;;;;;;;;;;5052159;28;20280;-55
2021/05/14 02:04:06;;;;;;;47.03;33.20;;;;;;;;;;5051882;28;20233;-57
2021/05/14 02:06:34;;;;;;;45.47;32.20;;;;;;;;;;5052318;28;20226;-55
2021/05/14 02:09:01;;;;;;;49.03;32.40;;;;;;;;;;5052244;28;20207;-53
2021/05/14 02:11:27;;;;;;;50.13;33.00;;;;;;;;;;5052098;28;20713;-56
2021/05/14 02:13:55;;;;;;;50.30;33.27;;;;;;;;;;5055119;28;20230;-57
2021/05/14 02:16:21;;;;;;;53.37;33.33;;;;;;;;;;5053884;28;20206;-57
2021/05/14 02:18:47;;;;;;;52.00;34.30;;;10.90;99.90;;;;;;5052665;28;20207;-57
2021/05/14 02:21:13;;;;;;;50.17;33.87;;;10.80;99.90;;;;;;5058292;28;20207;-56
2021/05/14 02:23:39;;;;;;;51.67;32.50;;;10.80;99.90;;;;;;5057979;28;20228;-55
2021/05/14 02:26:06;;;;;;;51.97;32.50;;;10.80;99.90;;;;;;5055771;28;20234;-56
2021/05/14 02:28:33;;;;;;;51.37;32.13;;;10.70;99.90;;;;;;5051720;28;20207;-57
2021/05/14 02:31:00;;;;;;;53.47;32.53;;;10.70;99.90;;;;;;5051664;28;20229;-57
2021/05/14 02:33:26;;;;;;;50.93;32.67;;;10.70;99.90;;;;;;5051914;28;20229;-54
2021/05/14 02:35:52;;;;;;;53.03;33.27;;;10.60;99.90;;;;;;5051823;28;20205;-57
2021/05/14 02:38:19;;;;;;;52.37;33.47;;;10.60;89.20;;;;;;5051850;28;20229;-54
2021/05/14 02:40:45;;;;;;;49.63;33.40;;;10.60;70.10;;;;;;5051596;28;20206;-57
2021/05/14 02:43:11;;;;;;;54.13;32.57;;;;;;;;;;5051951;28;20233;-54
2021/05/14 02:45:38;;;;;;;52.07;33.33;;;;;;;;;;5051323;28;20217;-57
2021/05/14 02:48:06;;;;;;;61.17;34.20;;;;;;;;;;5051651;28;20208;-53
2021/05/14 02:50:33;;;;;;;53.50;33.97;;;;;;;;;;5051517;28;20256;-55
2021/05/14 02:53:00;;;;;;;62.87;35.60;;;;;;;;;;5051420;28;20208;-56
2021/05/14 02:55:26;;;;;;;60.60;35.03;;;;;;;;;;5051415;28;20698;-56
2021/05/14 02:57:53;;;;;;;62.60;35.87;;;;;;;;;;5051609;28;20209;-55
2021/05/14 03:00:21;;;;;;;64.13;36.50;;;10.60;61.50;;;;;;5051489;28;20349;-56
2021/05/14 03:02:47;;;;;;;63.30;36.03;;;10.50;99.90;;;;;;5051417;28;20247;-55
2021/05/14 03:05:14;;;;;;;57.33;34.43;;;10.50;99.90;;;;;;5051446;28;20211;-57
2021/05/14 03:07:40;;;;;;;56.83;34.07;;;10.50;99.90;;;;;;5054627;28;20714;-57
2021/05/14 03:10:07;;;;;;;65.87;36.03;;;10.50;99.90;;;;;;5054945;28;20213;-55
2021/05/14 03:12:34;;;;;;;62.43;36.63;;;10.40;99.90;;;;;;5055146;28;20205;-57
2021/05/14 03:15:00;;;;;;;66.47;36.13;;;10.40;99.90;;;;;;5055019;28;20223;-57
2021/05/14 03:17:26;;;;;;;64.60;35.63;;;10.40;99.90;;;;;;5055027;28;20209;-57
2021/05/14 03:19:52;;;;;;;56.63;33.50;;;10.10;99.90;;;;;;5054923;28;20206;-56
2021/05/14 03:22:19;;;;;;;54.50;33.60;;;10.70;99.90;;;;;;5054712;28;20211;-57
2021/05/14 03:24:45;;;;;;;46.97;30.83;;;10.50;86.80;;;;;;5054958;28;20604;-56
2021/05/14 03:27:11;;;;;;;47.37;30.33;;;10.50;34.60;;;;;;5054871;28;20250;-57
2021/05/14 03:29:37;;;;;;;53.37;30.50;;;10.50;18.60;;;;;;5054892;28;20212;-56
2021/05/14 03:32:04;;;;;;;50.73;31.93;;;10.50;4.80;;;;;;5054649;28;20579;-56
2021/05/14 03:34:30;;;;;;;47.00;31.97;;;10.50;13.00;;;;;;5054635;28;20225;-55
2021/05/14 03:36:56;;;;;;;44.20;30.07;;;10.50;19.10;;;;;;5054387;28;20606;-57
2021/05/14 03:39:25;;;;;;;45.53;30.27;;;10.50;1.00;;;;;;5054811;28;20554;-57
2021/05/14 03:41:53;;;;;;;49.17;31.87;;;10.50;1.00;;;;;;5054573;28;20214;-57
2021/05/14 03:44:19;;;;;;;53.77;33.40;;;10.40;1.00;;;;;;5054354;28;20233;-57
2021/05/14 03:46:46;;;;;;;49.23;30.83;;;10.40;1.00;;;;;;5054283;28;20235;-57
2021/05/14 03:49:12;;;;;;;53.27;33.40;;;10.40;1.00;;;;;;5054632;28;20236;-57
2021/05/14 03:51:38;;;;;;;54.33;32.00;;;10.40;1.00;;;;;;5054155;28;20205;-57
2021/05/14 03:54:05;;;;;;;51.47;32.23;;;10.40;28.80;;;;;;5054321;28;20649;-57
2021/05/14 03:56:33;;;;;;;46.57;31.00;;;10.50;99.90;;;;;;5054466;28;20577;-54
2021/05/14 03:59:00;;;;;;;50.03;31.20;;;10.50;1.00;;;;;;5054287;28;20218;-57
2021/05/14 04:01:27;;;;;;;48.17;29.93;;;10.40;1.00;;;;;;5054033;28;20257;-56
2021/05/14 04:03:54;;;;;;;46.13;29.90;;;10.40;1.00;;;;;;5053964;28;20230;-58
2021/05/14 04:06:20;;;;;;;47.53;30.03;;;10.40;1.00;;;;;;5053907;28;20226;-58
2021/05/14 04:08:46;;;;;;;48.33;29.87;;;10.40;1.00;;;;;;5054245;28;20260;-55
2021/05/14 04:16:47;;;;;;;48.43;29.50;;;10.40;1.00;;;;;;5050089;28;20205;-56
2021/05/14 04:19:14;;;;;;;49.83;30.03;;;10.40;1.00;;;;;;5033136;28;20214;-57
2021/05/14 04:21:40;;;;;;;51.73;31.70;;;10.40;1.00;;;;;;5033946;28;20210;-57
2021/05/14 04:24:08;;;;;;;48.77;30.37;;;10.40;1.00;;;;;;5033810;28;20318;-57
2021/05/14 04:26:34;;;;;;;53.63;30.97;;;10.40;1.00;;;;;;5033773;28;20746;-57
2021/05/14 04:29:00;;;;;;;52.70;32.50;;;10.40;1.00;;;;;;5033314;28;20202;-57
2021/05/14 04:31:27;;;;;;;53.30;32.47;;;10.40;1.00;;;;;;5038030;28;20204;-57
2021/05/14 04:33:53;;;;;;;49.10;32.50;;;10.40;1.00;;;;;;5052295;28;20280;-57
2021/05/14 04:36:19;;;;;;;48.57;31.03;;;10.50;1.00;;;;;;5053433;28;20273;-57
2021/05/14 04:38:45;;;;;;;56.00;33.17;;;10.50;1.00;;;;;;5053563;28;20209;-56
2021/05/14 04:41:11;;;;;;;49.53;32.57;;;10.50;1.00;;;;;;5054392;28;20213;-56
2021/05/14 04:43:37;;;;;;;47.63;31.17;;;10.50;1.00;;;;;;5053780;28;20321;-57
2021/05/14 04:46:04;;;;;;;58.10;34.87;;;10.50;1.00;;;;;;5053637;28;20231;-62
2021/05/14 04:48:31;;;;;;;52.30;33.17;;;10.50;1.00;;;;;;5052946;28;20203;-56
2021/05/14 04:50:57;;;;;;;48.90;32.03;;;10.60;1.00;;;;;;5052799;28;20211;-54
2021/05/14 04:53:29;;;;;;;47.37;32.23;;;10.70;1.00;;;;;;5053721;28;20228;-56
2021/05/14 04:55:55;;;;;;;43.53;29.60;;;10.70;1.00;;;;;;5054053;28;20298;-58
2021/05/14 04:58:21;;;;;;;52.00;31.97;;;10.70;1.00;;;;;;5053237;28;20233;-57
2021/05/14 05:00:47;;;;;;;42.50;30.03;;;10.80;1.00;;;;;;5052759;28;20212;-53
2021/05/14 05:03:14;;;;;;;39.57;28.00;;;10.90;1.00;;;;;;5051999;28;20241;-55
2021/05/14 05:05:41;;;;;;;39.13;27.37;;;11.00;1.00;;;;;;5052850;28;20291;-57
2021/05/14 05:08:07;;;;;;;40.50;28.87;;;11.00;1.00;;;;;;5052702;28;20205;-57
2021/05/14 05:10:33;;;;;;;38.80;28.03;;;11.10;1.00;;;;;;5052846;28;20213;-57
2021/05/14 05:12:59;;;;;;;36.90;26.93;;;11.20;1.00;;;;;;5052252;28;20267;-57
2021/05/14 05:15:25;;;;;;;33.40;24.60;;;11.30;1.00;;;;;;5051770;28;20216;-60
2021/05/14 05:17:51;;;;;;;37.93;26.47;;;11.30;1.00;;;;;;5049172;28;20212;-58
2021/05/14 05:20:17;;;;;;;33.67;25.30;;;11.30;1.00;;;;;;5052250;28;20231;-58
2021/05/14 05:22:44;;;;;;;33.80;25.43;;;11.40;1.00;;;;;;5052571;28;20216;-56
2021/05/14 05:25:12;;;;;;;30.57;24.47;;;11.50;1.00;;;;;;5048988;28;20653;-59
2021/05/14 05:27:38;;;;;;;35.50;23.87;;;11.50;1.00;;;;;;5051656;28;20599;-59
2021/05/14 05:30:05;;;;;;;35.60;24.50;;;11.50;1.00;;;;;;5051659;28;20670;-59
2021/05/14 05:32:31;;;;;;;28.33;22.30;;;11.60;1.00;;;;;;5051800;28;20559;-56
2021/05/14 05:34:57;;;;;;;32.73;23.30;;;11.70;99.90;;;;;;5051593;28;20229;-58
2021/05/14 05:37:24;;;;;;;29.70;22.70;;;11.70;99.90;;;;;;5051954;28;20205;-62
2021/05/14 05:39:51;;;;;;;26.00;20.43;;;11.70;99.90;;;;;;5051820;28;20212;-62
2021/05/14 05:42:17;;;;;;;28.13;22.47;;;11.70;99.90;;;;;;5051692;28;20213;-62
2021/05/14 05:44:43;;;;;;;27.83;20.37;;;11.70;99.90;;;;;;5051349;28;20603;-62
2021/05/14 05:47:09;;;;;;;27.53;21.23;;;11.70;99.90;;;;;;5051877;28;20286;-60
2021/05/14 05:49:36;;;;;;;24.23;20.30;;;11.70;99.90;;;;;;5051672;28;20210;-61
2021/05/14 05:52:02;;;;;;;27.93;21.43;;;11.80;99.90;;;;;;5051695;28;20220;-61
2021/05/14 05:54:28;;;;;;;28.83;21.83;;;11.80;99.90;;;;;;5051471;28;20226;-63
2021/05/14 05:56:57;;;;;;;27.57;21.27;;;11.80;99.90;;;;;;5051572;28;20212;-62
2021/05/14 05:59:23;;;;;;;30.43;21.10;;;11.80;99.90;;;;;;5051592;28;20208;-59
2021/05/14 06:01:50;;;;;;;27.17;21.03;;;11.90;99.90;;;;;;5051530;28;20208;-51
2021/05/14 06:04:16;;;;;;;25.77;19.97;;;12.00;99.90;;;;;;5051696;28;20229;-55
2021/05/14 06:06:43;;;;;;;26.63;20.17;;;12.10;99.90;;;;;;5051166;28;20229;-54
2021/05/14 06:09:09;;;;;;;25.57;18.17;;;;;;;;;;5051386;28;20206;-53
2021/05/14 06:11:36;;;;;;;21.60;18.00;;;;;;;;;;5051533;28;20602;-50
2021/05/14 06:14:03;;;;;;;24.43;19.67;;;;;;;;;;5051224;28;20226;-62
2021/05/14 06:16:30;;;;;;;27.87;19.80;;;;;;;;;;5051166;28;20205;-61
2021/05/14 06:19:01;;;;;;;26.17;19.77;;;;;;;;;;5051457;28;20206;-63
2021/05/14 06:21:28;;;;;;;25.77;19.13;;;;;;;;;;5051161;28;20202;-62
2021/05/14 06:23:54;;;;;;;27.60;19.03;;;;;;;;;;5051562;28;20233;-50
2021/05/14 06:26:21;;;;;;;24.20;19.40;;;;;;;;;;5050521;28;20759;-53
2021/05/14 06:28:47;;;;;;;22.53;18.27;;;;;;;;;;5051822;28;20205;-57
2021/05/14 06:31:14;;;;;;;24.00;18.73;;;;;;;;;;5051814;28;20212;-61
2021/05/14 06:33:41;;;;;;;28.57;20.17;;;;;;;;;;5053648;28;20225;-62
2021/05/14 06:36:07;;;;;;;24.30;19.23;;;;;;;;;;5050676;28;20224;-62
2021/05/14 06:38:34;;;;;;;24.53;19.50;;;;;;;;;;5051409;28;20206;-62
2021/05/14 06:41:00;;;;;;;23.40;17.63;;;;;;;;;;5051848;28;20666;-59
2021/05/14 06:43:27;;;;;;;22.10;17.87;;;;;;;;;;5054079;28;20232;-59
2021/05/14 06:45:53;;;;;;;23.03;20.10;;;;;;;;;;5054570;28;20205;-60
2021/05/14 06:48:21;;;;;;;26.87;18.50;;;;;;;;;;5054399;28;20216;-59
2021/05/14 06:50:47;;;;;;;23.70;18.03;;;;;;;;;;5054616;28;20201;-59
2021/05/14 06:53:16;;;;;;;23.37;17.77;;;;;;;;;;5055109;28;20226;-60
2021/05/14 06:55:43;;;;;;;21.73;17.73;;;;;;;;;;5055061;28;20216;-60
2021/05/14 06:58:09;;;;;;;22.43;17.67;;;;;;;;;;5054968;28;20202;-65
2021/05/14 07:00:36;;;;;;;20.93;17.83;;;;;;;;;;5054941;28;20210;-59
2021/05/14 07:03:03;;;;;;;25.83;17.13;;;;;;;;;;5054821;28;20230;-58
2021/05/14 07:05:30;;;;;;;22.00;15.33;;;12.10;99.90;;;;;;5054162;28;20209;-59
2021/05/14 07:07:56;;;;;;;18.03;15.80;;;13.30;99.90;;;;;;5054436;28;20897;-59
2021/05/14 07:10:23;;;;;;;18.77;15.50;;;13.20;99.90;;;;;;5054723;28;20730;-57
2021/05/14 07:12:49;;;;;;;20.93;17.43;;;13.10;99.90;;;;;;5054480;28;20202;-58
2021/05/14 07:15:16;;;;;;;18.63;16.00;;;;;;;;;;5054417;28;20292;-59
2021/05/14 07:17:42;;;;;;;23.40;17.93;;;13.10;99.90;;;;;;5054107;28;20205;-59
2021/05/14 07:20:09;;;;;;;20.63;15.87;;;;;;;;;;5054059;28;20202;-59
2021/05/14 07:22:37;;;;;;;22.83;17.53;;;;;;;;;;5054394;28;20671;-63
2021/05/14 07:25:04;;;;;;;21.10;16.70;;;;;;;;;;5054257;28;20227;-61
2021/05/14 07:27:30;;;;;;;20.20;15.37;;;;;;;;;;5054147;28;20627;-63
2021/05/14 07:29:57;;;;;;;18.67;15.50;;;;;;;;;;5054169;28;20219;-62
2021/05/14 07:32:23;;;;;;;20.93;16.03;;;;;;;;;;5054197;28;20211;-62
2021/05/14 07:34:52;;;;;;;18.73;15.57;;;;;;;;;;5053945;28;20290;-62
2021/05/14 07:37:18;;;;;;;18.20;14.83;;;;;;;;;;5053702;28;20214;-55
2021/05/14 07:39:46;;;;;;;23.30;16.07;;;;;;;;;;5053950;28;20734;-60
2021/05/14 07:42:12;;;;;;;18.07;14.93;;;;;;;;;;5054072;28;20206;-60
2021/05/14 07:44:39;;;;;;;18.53;14.77;;;;;;;;;;5053791;28;20290;-60
2021/05/14 07:47:06;;;;;;;16.67;13.97;;;13.10;99.90;;;;;;5053133;28;20762;-63
2021/05/14 07:49:32;;;;;;;16.17;14.47;;;;;;;;;;5054054;28;20223;-63
2021/05/14 07:51:59;;;;;;;16.93;12.90;;;14.60;77.70;;;;;;5052923;28;20209;-63
2021/05/14 07:54:25;;;;;;;14.20;12.33;;;14.50;99.90;;;;;;5053485;28;20646;-59
2021/05/14 07:56:52;;;;;;;18.33;12.60;;;14.60;99.90;;;;;;5053912;28;20212;-58
2021/05/14 07:59:18;;;;;;;15.53;12.63;;;;;;;;;;5053896;28;20214;-60
2021/05/14 08:01:45;;;;;;;15.77;13.33;;;;;;;;;;5053675;28;20267;-61
2021/05/14 08:04:11;;;;;;;16.13;12.10;;;14.50;99.90;;;;;;5053680;28;20239;-66
2021/05/14 08:06:37;;;;;;;15.63;12.27;;;14.40;32.70;;;;;;5053120;28;20285;-66
2021/05/14 08:09:06;;;;;;;15.50;12.33;;;14.40;1.00;;;;;;5053623;28;20210;-66
2021/05/14 08:11:33;;;;;;;14.50;12.20;;;14.40;1.00;;;;;;5053434;28;20216;-69
2021/05/14 08:14:00;;;;;;;13.07;11.10;;;14.50;1.00;;;;;;5053151;28;20296;-69
2021/05/14 08:16:26;;;;;;;15.63;11.07;;;14.80;1.00;;;;;;5053010;28;20220;-67
2021/05/14 08:18:52;;;;;;;12.90;11.20;;;15.30;1.00;;;;;;5053633;28;20201;-67
2021/05/14 08:21:19;;;;;;;14.37;11.53;;;15.40;1.00;;;;;;5053406;28;20572;-68
2021/05/14 08:23:45;;;;;;;10.93;9.30;;;15.50;1.00;;;;;;5053390;28;20229;-64
2021/05/14 08:26:12;;;;;;;14.83;9.93;;;15.70;1.00;;;;;;5052954;28;20209;-62
2021/05/14 08:28:38;;;;;;;12.93;9.40;;;15.80;1.00;;;;;;5052930;28;20206;-62
2021/05/14 08:31:05;;;;;;;13.93;10.60;;;16.00;1.00;;;;;;5053243;28;20205;-62
2021/05/14 08:33:31;;;;;;;12.20;10.53;;;16.20;1.00;;;;;;5053095;28;20230;-64
2021/05/14 08:35:57;;;;;;;13.73;9.40;;;16.10;1.00;;;;;;5052975;28;20263;-63
2021/05/14 08:38:26;;;;;;;11.63;9.13;;;16.40;1.00;;;;;;5053236;28;20201;-63
2021/05/14 08:40:52;;;;;;;13.63;9.43;;;16.50;1.00;;;;;;5052989;28;20271;-62
2021/05/14 08:43:19;;;;;;;12.87;9.83;;;16.50;1.00;;;;;;5052304;28;20217;-62
2021/05/14 08:45:45;;;;;;;13.30;9.97;;;16.40;1.00;;;;;;5052256;28;20217;-66
2021/05/14 08:48:12;;;;;;;13.20;10.10;;;16.30;1.00;;;;;;5052545;28;20723;-66
2021/05/14 08:50:40;;;;;;;14.03;11.23;;;16.00;1.00;;;;;;5052790;28;20213;-66
2021/05/14 08:53:06;;;;;;;14.87;11.20;;;15.80;1.00;;;;;;5052625;28;20682;-68
2021/05/14 08:55:32;;;;;;;13.87;11.03;;;15.70;1.00;;;;;;5052529;28;20210;-70
2021/05/14 08:57:59;;;;;;;15.13;10.87;;;15.70;1.00;;;;;;5052541;28;20782;-68
2021/05/14 09:00:26;;;;;;;13.93;10.17;;;15.80;1.00;;;;;;5052578;28;20209;-62
2021/05/14 09:02:53;;;;;;;12.00;8.73;;;15.80;1.00;;;;;;5052485;28;20242;-63
2021/05/14 09:05:25;;;;;;;9.40;7.37;;;15.90;1.00;;;;;;5051831;28;20240;-62
2021/05/14 09:07:52;;;;;;;10.50;7.63;;;15.90;1.00;;;;;;5052015;28;20228;-62
2021/05/14 09:10:19;;;;;;;10.37;7.90;;;15.90;1.00;;;;;;5051786;28;20216;-65
2021/05/14 09:12:46;;;;;;;13.10;8.83;;;15.90;1.00;;;;;;5052046;28;20263;-63
2021/05/14 09:15:23;;;;;;;11.87;8.50;;;15.90;1.00;;;;;;5051802;28;20229;-65
2021/05/14 09:18:10;;;;;;;11.27;8.67;;;15.70;1.00;;;;;;5051965;28;20202;-66
2021/05/14 09:20:38;;;;;;;11.53;8.53;;;15.80;1.00;;;;;;5051541;28;20243;-67
2021/05/14 09:23:31;;;;;;;12.50;9.40;;;16.00;1.00;;;;;;5052422;28;20209;-63
2021/05/14 09:25:59;;;;;;;12.10;8.83;;;16.20;1.00;;;;;;5051620;28;20205;-63
2021/05/14 09:28:28;;;;;;;11.93;9.37;;;16.30;1.00;;;;;;5051915;28;20253;-65
2021/05/14 09:31:03;;;;;;;8.00;6.90;;;16.50;1.00;;;;;;5051826;28;20217;-63
2021/05/14 09:33:29;;;;;;;10.30;6.90;;;16.80;1.00;;;;;;5051704;28;20232;-63
2021/05/14 09:36:00;;;;;;;7.73;6.00;;;16.90;1.00;;;;;;5051508;28;20218;-63
2021/05/14 09:38:27;;;;;;;8.73;7.03;;;16.90;1.00;;;;;;5051793;28;20209;-63
2021/05/14 09:40:53;;;;;;;8.13;6.40;;;16.90;1.00;;;;;;5051721;28;20255;-63
2021/05/14 09:43:23;;;;;;;7.40;4.87;;;16.70;1.00;;;;;;5051714;28;20225;-69
2021/05/14 09:45:51;;;;;;;7.17;4.27;;;16.60;1.00;;;;;;5051005;28;20214;-66
2021/05/14 09:48:21;;;;;;;7.37;5.47;;;16.60;1.00;;;;;;5051873;28;20287;-66
2021/05/14 09:50:49;;;;;;;7.67;4.60;;;16.40;1.00;;;;;;5051503;28;20296;-65
2021/05/14 09:53:17;;;;;;;6.37;4.00;;;16.40;1.00;;;;;;5051618;28;20232;-65
2021/05/14 09:55:48;;;;;;;5.50;4.00;;;16.50;1.00;;;;;;5051203;28;20202;-63
2021/05/14 09:58:17;;;;;;;5.43;4.30;;;16.60;1.00;;;;;;5051646;28;20202;-63
2021/05/14 10:00:43;;;;;;;6.37;4.30;;;16.80;1.00;;;;;;5051745;28;20209;-64
2021/05/14 10:03:11;;;;;;;7.07;4.20;;;17.10;1.00;;;;;;5051561;28;20222;-64
2021/05/14 10:05:38;;;;;;;13.10;4.00;;;16.90;1.00;;;;;;5051137;28;20205;-63
2021/05/14 10:08:06;;;;;;;6.60;3.60;;;16.90;1.00;;;;;;5050964;28;20323;-65
2021/05/14 10:10:34;;;;;;;5.50;4.23;;;17.10;1.00;;;;;;5051509;28;20576;-69
2021/05/14 10:13:01;;;;;;;8.60;5.87;;;17.00;1.00;;;;;;5051036;28;20766;-65
2021/05/14 10:15:27;;;;;;;6.53;4.20;;;17.00;1.00;;;;;;5050424;28;20216;-66
2021/05/14 10:17:55;;;;;;;5.30;4.03;;;17.30;1.00;;;;;;5051476;28;20201;-65
2021/05/14 10:20:26;;;;;;;4.57;3.43;;;17.30;1.00;;;;;;5051124;28;20645;-64
2021/05/14 10:22:54;;;;;;;7.57;4.50;;;17.30;1.00;;;;;;5051324;28;20206;-62
2021/05/14 10:25:43;;;;;;;6.57;3.40;;;17.20;1.00;;;;;;5050676;28;20217;-65
2021/05/14 10:28:11;;;;;;;7.40;5.23;;;16.90;1.00;;;;;;5051441;28;20259;-67
2021/05/14 10:31:15;;;;;;;5.57;4.10;;;16.80;1.00;;;;;;5051224;28;20236;-63
2021/05/14 10:33:42;;;;;;;6.30;4.77;;;16.90;1.00;;;;;;5051098;28;20714;-63
2021/05/14 10:36:10;;;;;;;8.03;5.30;;;16.60;1.00;;;;;;5051492;28;20206;-63
2021/05/14 10:38:37;;;;;;;6.80;4.13;;;16.80;1.00;;;;;;5059651;28;20255;-67
2021/05/14 10:41:25;;;;;;;7.93;4.87;;;17.00;1.00;;;;;;5062170;28;20206;-68
2021/05/14 10:43:59;;;;;;;7.93;4.40;;;17.20;1.00;;;;;;5061743;28;20237;-67
2021/05/14 10:46:28;;;;;;;6.50;4.43;;;16.80;1.00;;;;;;5050812;28;20650;-67
2021/05/14 10:49:03;;;;;;;5.77;3.93;;;16.80;1.00;;;;;;5051351;28;20296;-66
2021/05/14 10:52:00;;;;;;;5.80;4.10;;;17.00;1.00;;;;;;5051141;28;20221;-66
2021/05/14 10:54:51;;;;;;;8.67;5.00;;;17.20;1.00;;;;;;5042875;28;20320;-63
2021/05/14 10:57:48;;;;;;;5.53;4.10;;;17.20;1.00;;;;;;5050269;28;20209;-65
2021/05/14 11:00:36;;;;;;;6.50;4.27;;;17.20;1.00;;;;;;5050981;28;20291;-63
2021/05/14 11:03:16;;;;;;;6.90;4.57;;;17.10;1.00;;;;;;5051357;28;20305;-62
2021/05/14 11:05:44;;;;;;;7.83;5.03;;;16.80;1.00;;;;;;5050592;28;20213;-62
2021/05/14 11:08:11;;;;;;;8.97;4.87;;;16.90;1.00;;;;;;5050712;28;20318;-62
2021/05/14 11:10:39;;;;;;;7.03;4.80;;;17.00;1.00;;;;;;5050742;28;20742;-66
2021/05/14 11:13:35;;;;;;;6.30;4.50;;;17.00;1.00;;;;;;5050701;28;20207;-68
2021/05/14 11:16:34;;;;;;;7.90;4.03;;;17.10;1.00;;;;;;5050594;28;20263;-66
2021/05/14 11:19:24;;;;;;;6.00;4.30;;;17.20;1.00;;;;;;5050874;28;20205;-63
2021/05/14 11:22:07;;;;;;;5.90;3.97;;;17.00;1.00;;;;;;5047338;28;20217;-63
2021/05/14 11:24:35;;;;;;;6.27;4.67;;;17.10;1.00;;;;;;5050569;28;20239;-63
2021/05/14 11:27:04;;;;;;;6.27;4.60;;;17.20;1.00;;;;;;5050993;28;20772;-64
2021/05/14 11:29:33;;;;;;;4.50;3.63;;;17.40;1.00;;;;;;5054068;28;20216;-61
2021/05/14 11:32:26;;;;;;;6.70;4.10;;;17.50;1.00;;;;;;5053964;28;20205;-62
2021/05/14 11:34:57;;;;;;;6.00;4.33;;;17.40;1.00;;;;;;5054210;28;20593;-62
2021/05/14 11:37:26;;;;;;;6.60;3.73;;;17.20;1.00;;;;;;5053900;28;20748;-65
2021/05/14 11:39:52;;;;;;;6.60;4.90;;;17.10;1.00;;;;;;5054256;28;20278;-63
2021/05/14 11:42:20;;;;;;;7.63;4.67;;;17.10;1.00;;;;;;5053754;28;20815;-63
2021/05/14 11:44:57;;;;;;;8.13;3.83;;;17.10;1.00;;;;;;5053915;28;20244;-62
2021/05/14 11:47:24;;;;;;;9.67;3.17;;;17.30;1.00;;;;;;5053510;28;20721;-63
2021/05/14 11:49:51;;;;;;;7.87;3.13;;;17.50;1.00;;;;;;5053865;28;20201;-62
2021/05/14 11:52:31;;;;;;;4.23;2.50;;;17.70;1.00;;;;;;5054046;28;20206;-65
2021/05/14 11:55:02;;;;;;;3.47;2.60;;;17.70;1.00;;;;;;5053282;28;20221;-64
2021/05/14 11:57:30;;;;;;;4.73;2.53;;;17.70;1.00;;;;;;5053516;28;20854;-64
2021/05/14 11:59:57;;;;;;;4.43;2.60;;;17.70;1.00;;;;;;5053740;28;20209;-65
2021/05/14 12:02:34;;;;;;;4.23;2.87;;;17.90;1.00;;;;;;5053790;28;20296;-60
2021/05/14 12:05:01;;;;;;;7.27;3.27;;;18.00;1.00;;;;;;5053364;28;20233;-62
2021/05/14 12:07:27;;;;;;;4.80;3.23;;;18.10;1.00;;;;;;5053015;28;20221;-62
2021/05/14 12:10:00;;;;;;;6.50;3.53;;;18.10;1.00;;;;;;5053724;28;20265;-61
2021/05/14 12:12:27;;;;;;;4.63;3.70;;;18.10;1.00;;;;;;5053572;28;20209;-65
2021/05/14 12:15:10;;;;;;;7.10;3.13;;;18.30;1.00;;;;;;5054969;28;20233;-63
2021/05/14 12:17:36;;;;;;;4.00;3.60;;;18.50;1.00;;;;;;5053905;28;20209;-61
2021/05/14 12:20:17;;;;;;;5.30;3.33;;;18.10;1.00;;;;;;5053481;28;20953;-61
2021/05/14 12:22:46;;;;;;;4.93;3.00;;;18.10;1.00;;;;;;5053521;28;20205;-62
2021/05/14 12:25:13;;;;;;;6.23;3.60;;;18.20;1.00;;;;;;5053074;28;20225;-65
2021/05/14 12:27:40;;;;;;;4.47;3.43;;;18.20;1.00;;;;;;5052934;28;20229;-60
2021/05/14 12:30:08;;;;;;;5.83;3.70;;;18.10;1.00;;;;;;5053354;28;20217;-60
2021/05/14 12:32:35;;;;;;;8.73;3.20;;;17.90;1.00;;;;;;5053006;28;20264;-61
2021/05/14 12:35:02;;;;;;;4.50;2.90;;;17.60;1.00;;;;;;5052610;28;20229;-62
2021/05/14 12:37:28;;;;;;;6.70;3.17;;;17.70;1.00;;;;;;5052466;28;20867;-62
2021/05/14 12:39:54;;;;;;;4.57;3.50;;;17.80;1.00;;;;;;5052038;28;20221;-65
2021/05/14 12:42:27;;;;;;;4.40;2.80;;;17.80;1.00;;;;;;5052985;28;20205;-64
2021/05/14 12:44:55;;;;;;;3.77;2.80;;;17.60;1.00;;;;;;5052227;28;20241;-65
2021/05/14 12:47:21;;;;;;;4.87;3.47;;;17.60;1.00;;;;;;5052406;28;20660;-66
2021/05/14 12:49:50;;;;;;;6.10;3.50;;;17.40;1.00;;;;;;5052993;28;20592;-65
2021/05/14 12:52:20;;;;;;;5.90;4.13;;;17.50;1.00;;;;;;5052740;28;20205;-63
2021/05/14 12:55:12;;;;;;;9.23;3.73;;;17.70;1.00;;;;;;5052551;28;20628;-63
2021/05/14 12:57:40;;;;;;;5.17;3.73;;;18.00;1.00;;;;;;5048367;28;20552;-63
2021/05/14 13:00:15;;;;;;;5.30;3.90;;;18.10;1.00;;;;;;5052252;28;20624;-62
2021/05/14 13:02:51;;;;;;;5.77;4.10;;;18.20;1.00;;;;;;5052588;28;20216;-65
2021/05/14 13:05:19;;;;;;;6.13;4.10;;;17.70;1.00;;;;;;5052128;28;20626;-65
2021/05/14 13:07:59;;;;;;;6.73;3.83;;;17.10;1.00;;;;;;5051911;28;20287;-64
2021/05/14 13:10:40;;;;;;;6.37;4.53;;;16.90;1.00;;;;;;5052256;28;20556;-62
2021/05/14 13:13:07;;;;;;;6.60;3.87;;;16.30;4.30;;;;;;5052319;28;20205;-63
2021/05/14 13:15:33;;;;;;;5.23;3.73;;;16.20;1.00;;;;;;5051774;28;20267;-64
2021/05/14 13:18:00;;;;;;;9.00;3.17;;;16.40;1.00;;;;;;5051949;28;20634;-66
2021/05/14 13:20:27;;;;;;;5.50;3.90;;;16.60;1.00;;;;;;5050898;28;20577;-66
2021/05/14 13:22:53;;;;;;;6.10;4.10;;;16.80;1.00;;;;;;5052139;28;20575;-66